createdAt,value
2019-02-05T00:00:10.312Z,23.53
2019-02-05T00:01:10.294Z,23.55
2019-02-05T00:03:04.126Z,23.64
2019-02-05T00:04:03.898Z,23.64
2019-02-05T00:05:57.018Z,23.50
2019-02-05T00:06:57.248Z,23.58
2019-02-05T00:08:49.823Z,23.42
2019-02-05T00:09:49.329Z,23.53
2019-02-05T00:11:42.979Z,23.64
2019-02-05T00:12:42.700Z,23.60
2019-02-05T00:14:36.076Z,23.62
2019-02-05T00:15:35.284Z,23.57
2019-02-05T00:17:27.370Z,23.62
2019-02-05T00:18:27.558Z,23.50
2019-02-05T00:20:21.085Z,23.52
2019-02-05T00:21:20.711Z,23.53
2019-02-05T00:23:14.292Z,23.57
2019-02-05T00:24:14.290Z,23.47
2019-02-05T00:26:06.876Z,23.64
2019-02-05T00:27:06.586Z,23.55
2019-02-05T00:28:58.726Z,23.62
2019-02-05T00:29:58.903Z,23.61
2019-02-05T00:31:52.518Z,23.42
2019-02-05T00:32:52.066Z,23.57
2019-02-05T00:34:44.591Z,23.43
2019-02-05T00:35:44.611Z,23.58
2019-02-05T00:37:38.726Z,23.57
2019-02-05T00:38:38.491Z,23.61
2019-02-05T00:40:30.811Z,23.58
2019-02-05T00:41:30.854Z,23.57
2019-02-05T00:43:24.186Z,23.60
2019-02-05T00:44:24.181Z,23.58
2019-02-05T00:46:17.528Z,23.61
2019-02-05T00:47:17.544Z,23.61
2019-02-05T00:49:09.774Z,23.67
2019-02-05T00:50:09.628Z,23.57
2019-02-05T00:52:02.205Z,23.55
2019-02-05T00:53:01.927Z,23.65
2019-02-05T00:54:55.765Z,23.65
2019-02-05T00:55:55.512Z,23.65
2019-02-05T00:57:48.876Z,23.71
2019-02-05T00:58:48.620Z,23.65
2019-02-05T01:00:42.409Z,23.65
2019-02-05T01:01:41.962Z,23.67
2019-02-05T01:03:35.572Z,23.67
2019-02-05T01:04:35.352Z,23.65
2019-02-05T01:06:27.888Z,23.68
2019-02-05T01:07:27.917Z,23.68
2019-02-05T01:09:20.237Z,23.68
2019-02-05T01:10:20.221Z,23.76
2019-02-05T01:12:12.890Z,23.75
2019-02-05T01:13:12.692Z,23.76
2019-02-05T01:15:05.836Z,23.82
2019-02-05T01:16:05.295Z,23.82
2019-02-05T01:17:58.582Z,23.79
2019-02-05T01:18:58.605Z,23.77
2019-02-05T01:20:50.688Z,23.82
2019-02-05T01:21:50.937Z,23.83
2019-02-05T01:23:44.252Z,23.87
2019-02-05T01:24:44.279Z,23.83
2019-02-05T01:26:36.654Z,23.80
2019-02-05T01:27:36.388Z,23.82
2019-02-05T01:29:30.203Z,23.86
2019-02-05T01:30:29.965Z,23.82
2019-02-05T01:32:22.093Z,23.89
2019-02-05T01:33:22.055Z,23.80
2019-02-05T01:35:15.667Z,23.80
2019-02-05T01:36:15.430Z,23.77
2019-02-05T01:38:09.004Z,23.75
2019-02-05T01:39:08.742Z,23.80
2019-02-05T01:41:02.320Z,23.75
2019-02-05T01:42:02.091Z,23.85
2019-02-05T01:43:55.691Z,23.82
2019-02-05T01:44:55.720Z,23.87
2019-02-05T01:46:49.028Z,23.80
2019-02-05T01:47:48.783Z,23.87
2019-02-05T01:49:40.867Z,23.89
2019-02-05T01:50:40.852Z,23.85
2019-02-05T01:52:33.760Z,23.83
2019-02-05T01:53:33.535Z,23.89
2019-02-05T01:55:26.893Z,23.82
2019-02-05T01:56:26.904Z,23.83
2019-02-05T01:58:19.658Z,23.89
2019-02-05T01:59:19.635Z,23.86
2019-02-05T02:01:11.744Z,23.86
2019-02-05T02:02:11.971Z,23.85
2019-02-05T02:04:05.536Z,23.86
2019-02-05T02:05:05.077Z,23.85
2019-02-05T02:06:57.440Z,23.82
2019-02-05T02:07:57.642Z,23.87
2019-02-05T02:09:50.166Z,23.80
2019-02-05T02:10:49.967Z,23.86
2019-02-05T02:12:43.337Z,23.86
2019-02-05T02:13:43.112Z,23.86
2019-02-05T02:15:35.741Z,23.82
2019-02-05T02:16:35.794Z,23.82
2019-02-05T02:18:27.746Z,23.89
2019-02-05T02:19:27.997Z,23.83
2019-02-05T02:21:21.581Z,23.85
2019-02-05T02:22:21.085Z,23.82
2019-02-05T02:24:13.458Z,23.85
2019-02-05T02:25:13.673Z,23.86
2019-02-05T02:27:05.949Z,23.82
2019-02-05T02:28:06.015Z,23.80
2019-02-05T02:29:58.114Z,23.87
2019-02-05T02:30:58.319Z,23.86
2019-02-05T02:32:51.957Z,23.86
2019-02-05T02:33:51.694Z,23.85
2019-02-05T02:35:44.420Z,23.87
2019-02-05T02:36:44.161Z,23.85
2019-02-05T02:38:37.473Z,23.86
2019-02-05T02:39:37.231Z,23.85
2019-02-05T02:41:30.346Z,23.85
2019-02-05T02:42:30.607Z,23.87
2019-02-05T02:44:24.149Z,23.87
2019-02-05T02:45:23.925Z,23.82
2019-02-05T02:47:16.670Z,23.89
2019-02-05T02:48:16.620Z,23.87
2019-02-05T02:50:08.958Z,23.86
2019-02-05T02:51:08.952Z,23.90
2019-02-05T02:53:01.317Z,23.97
2019-02-05T02:54:01.294Z,23.95
2019-02-05T02:55:53.643Z,24.01
2019-02-05T02:57:04.387Z,24.01
2019-02-05T02:58:46.998Z,24.00
2019-02-05T02:59:47.019Z,24.01
2019-02-05T03:01:39.287Z,24.04
2019-02-05T03:02:39.323Z,24.05
2019-02-05T03:04:31.411Z,24.10
2019-02-05T03:05:31.655Z,24.10
2019-02-05T03:07:25.185Z,24.07
2019-02-05T03:08:24.746Z,24.00
2019-02-05T03:10:18.351Z,24.02
2019-02-05T03:11:18.324Z,24.01
2019-02-05T03:13:11.381Z,23.94
2019-02-05T03:14:10.773Z,23.98
2019-02-05T03:16:03.993Z,24.02
2019-02-05T03:17:03.101Z,24.04
2019-02-05T03:18:55.660Z,24.00
2019-02-05T03:19:55.694Z,24.04
2019-02-05T03:21:47.780Z,24.02
2019-02-05T03:22:48.024Z,24.05
2019-02-05T03:24:41.604Z,24.04
2019-02-05T03:25:41.109Z,23.95
2019-02-05T03:27:33.468Z,24.01
2019-02-05T03:28:33.459Z,24.01
2019-02-05T03:30:26.091Z,24.00
2019-02-05T03:31:26.017Z,23.97
2019-02-05T03:33:19.408Z,24.07
2019-02-05T03:34:19.405Z,23.94
2019-02-05T03:36:13.532Z,24.08
2019-02-05T03:37:12.733Z,24.05
2019-02-05T03:39:05.052Z,24.08
2019-02-05T03:40:05.078Z,24.01
2019-02-05T03:41:57.471Z,24.08
2019-02-05T03:42:57.485Z,24.01
2019-02-05T03:44:49.587Z,24.05
2019-02-05T03:45:49.838Z,24.02
2019-02-05T03:47:42.306Z,24.02
2019-02-05T03:48:41.874Z,24.07
2019-02-05T03:50:34.482Z,24.01
2019-02-05T03:51:34.245Z,24.01
2019-02-05T03:53:28.031Z,24.00
2019-02-05T03:54:27.843Z,24.00
2019-02-05T03:56:21.190Z,24.00
2019-02-05T03:57:30.735Z,23.98
2019-02-05T03:59:13.337Z,24.05
2019-02-05T04:00:13.136Z,24.02
2019-02-05T04:02:05.496Z,23.97
2019-02-05T04:03:05.468Z,23.97
2019-02-05T04:04:57.996Z,24.04
2019-02-05T04:05:57.822Z,23.98
2019-02-05T04:07:50.528Z,23.95
2019-02-05T04:08:50.410Z,24.04
2019-02-05T04:10:43.687Z,23.92
2019-02-05T04:11:43.521Z,24.00
2019-02-05T04:13:35.866Z,23.90
2019-02-05T04:14:36.074Z,23.90
2019-02-05T04:16:28.481Z,23.90
2019-02-05T04:17:27.928Z,23.90
2019-02-05T04:19:20.005Z,23.89
2019-02-05T04:20:20.250Z,23.92
2019-02-05T04:22:13.584Z,23.94
2019-02-05T04:23:13.349Z,23.89
2019-02-05T04:25:05.855Z,23.87
2019-02-05T04:26:05.894Z,23.94
2019-02-05T04:27:58.236Z,23.86
2019-02-05T04:28:58.294Z,23.89
2019-02-05T04:30:50.609Z,23.86
2019-02-05T04:31:50.549Z,23.89
2019-02-05T04:33:44.175Z,23.77
2019-02-05T04:34:43.935Z,23.95
2019-02-05T04:36:36.015Z,23.95
2019-02-05T04:37:36.048Z,23.87
2019-02-05T04:39:30.124Z,23.87
2019-02-05T04:40:30.132Z,23.89
2019-02-05T04:42:22.490Z,23.87
2019-02-05T04:43:22.225Z,23.90
2019-02-05T04:45:16.052Z,23.94
2019-02-05T04:46:15.832Z,23.94
2019-02-05T04:48:08.953Z,23.94
2019-02-05T04:49:08.961Z,23.90
2019-02-05T04:51:01.851Z,23.94
2019-02-05T04:52:01.503Z,23.92
2019-02-05T04:53:53.153Z,23.92
2019-02-05T04:54:53.380Z,23.92
2019-02-05T04:56:46.963Z,23.92
2019-02-05T04:57:56.928Z,23.95
2019-02-05T04:59:38.800Z,23.94
2019-02-05T05:00:39.028Z,23.86
2019-02-05T05:02:32.600Z,23.89
2019-02-05T05:03:33.880Z,23.82
2019-02-05T05:05:24.455Z,23.89
2019-02-05T05:06:24.730Z,23.89
2019-02-05T05:08:18.204Z,23.83
2019-02-05T05:09:17.799Z,23.83
2019-02-05T05:11:10.391Z,23.82
2019-02-05T05:12:10.355Z,23.94
2019-02-05T05:14:02.916Z,23.92
2019-02-05T05:15:02.706Z,23.94
2019-02-05T05:16:56.031Z,23.97
2019-02-05T05:17:55.814Z,23.90
2019-02-05T05:19:48.407Z,23.87
2019-02-05T05:20:48.167Z,23.89
2019-02-05T05:22:41.785Z,23.89
2019-02-05T05:23:41.742Z,23.87
2019-02-05T05:25:34.348Z,23.89
2019-02-05T05:26:33.863Z,23.89
2019-02-05T05:28:26.200Z,23.87
2019-02-05T05:29:26.167Z,23.83
2019-02-05T05:31:18.974Z,23.85
2019-02-05T05:32:18.495Z,23.87
2019-02-05T05:34:11.444Z,23.83
2019-02-05T05:35:11.173Z,23.83
2019-02-05T05:37:04.714Z,23.80
2019-02-05T05:38:04.791Z,23.83
2019-02-05T05:39:57.161Z,23.83
2019-02-05T05:40:57.120Z,23.82
2019-02-05T05:42:49.729Z,23.82
2019-02-05T05:43:49.228Z,23.82
2019-02-05T05:45:41.777Z,23.87
2019-02-05T05:46:41.534Z,23.82
2019-02-05T05:48:34.117Z,23.82
2019-02-05T05:49:33.868Z,23.86
2019-02-05T05:51:27.238Z,23.86
2019-02-05T05:52:27.217Z,23.82
2019-02-05T05:54:20.062Z,23.83
2019-02-05T05:55:19.838Z,23.85
2019-02-05T05:57:12.961Z,23.94
2019-02-05T05:58:22.405Z,23.89
2019-02-05T06:00:06.053Z,23.94
2019-02-05T06:01:05.835Z,23.95
2019-02-05T06:02:57.948Z,23.95
2019-02-05T06:03:58.187Z,23.90
2019-02-05T06:05:51.769Z,23.90
2019-02-05T06:06:51.301Z,23.92
2019-02-05T06:08:43.984Z,23.90
2019-02-05T06:09:43.987Z,23.97
2019-02-05T06:11:37.587Z,23.95
2019-02-05T06:12:37.139Z,23.94
2019-02-05T06:14:29.743Z,24.00
2019-02-05T06:15:29.709Z,23.92
2019-02-05T06:17:23.054Z,23.90
2019-02-05T06:18:23.044Z,23.98
2019-02-05T06:20:15.123Z,23.90
2019-02-05T06:21:15.380Z,23.89
2019-02-05T06:23:08.934Z,23.92
2019-02-05T06:24:08.722Z,23.92
2019-02-05T06:26:01.073Z,23.97
2019-02-05T06:27:00.793Z,23.94
2019-02-05T06:28:54.624Z,23.94
2019-02-05T06:29:54.373Z,23.97
2019-02-05T06:31:47.762Z,24.01
2019-02-05T06:32:47.485Z,24.00
2019-02-05T06:34:40.310Z,23.97
2019-02-05T06:35:39.825Z,24.01
2019-02-05T06:37:32.901Z,23.98
2019-02-05T06:38:32.902Z,23.97
2019-02-05T06:40:26.961Z,23.95
2019-02-05T06:41:26.752Z,24.01
2019-02-05T06:43:18.869Z,24.04
2019-02-05T06:44:19.049Z,24.00
2019-02-05T06:46:12.400Z,24.02
2019-02-05T06:47:12.418Z,24.10
2019-02-05T06:49:04.549Z,24.00
2019-02-05T06:50:04.502Z,24.07
2019-02-05T06:51:57.323Z,23.95
2019-02-05T06:52:56.847Z,23.98
2019-02-05T06:54:50.481Z,23.95
2019-02-05T06:55:50.496Z,23.90
2019-02-05T06:57:42.609Z,23.95
2019-02-05T06:58:46.404Z,24.04
2019-02-05T07:00:35.373Z,24.01
2019-02-05T07:01:34.763Z,24.01
2019-02-05T07:03:28.154Z,24.02
2019-02-05T07:04:28.108Z,24.02
2019-02-05T07:06:20.454Z,23.98
2019-02-05T07:07:20.480Z,23.97
2019-02-05T07:09:13.402Z,24.07
2019-02-05T07:10:12.943Z,24.01
2019-02-05T07:12:05.243Z,24.01
2019-02-05T07:13:05.258Z,24.02
2019-02-05T07:14:58.769Z,23.95
2019-02-05T07:15:58.588Z,24.00
2019-02-05T07:17:51.153Z,23.98
2019-02-05T07:18:51.151Z,24.02
2019-02-05T07:20:44.698Z,24.04
2019-02-05T07:21:44.530Z,24.01
2019-02-05T07:23:36.883Z,24.04
2019-02-05T07:24:36.840Z,23.98
2019-02-05T07:26:29.458Z,24.02
2019-02-05T07:27:28.940Z,24.04
2019-02-05T07:29:21.504Z,23.97
2019-02-05T07:30:21.536Z,24.04
2019-02-05T07:32:15.132Z,23.98
2019-02-05T07:33:14.620Z,24.02
2019-02-05T07:35:07.244Z,24.04
2019-02-05T07:36:06.950Z,24.01
2019-02-05T07:37:59.793Z,23.97
2019-02-05T07:38:59.651Z,24.10
2019-02-05T07:40:52.001Z,24.01
2019-02-05T07:41:51.736Z,24.08
2019-02-05T07:43:45.278Z,24.08
2019-02-05T07:44:45.050Z,24.05
2019-02-05T07:46:37.526Z,24.02
2019-02-05T07:47:37.616Z,24.04
2019-02-05T07:49:30.077Z,24.10
2019-02-05T07:50:29.856Z,24.10
2019-02-05T07:52:23.488Z,24.04
2019-02-05T07:53:23.214Z,24.00
2019-02-05T07:55:16.805Z,24.07
2019-02-05T07:56:16.782Z,24.05
2019-02-05T07:58:08.928Z,24.04
2019-02-05T07:59:10.518Z,24.02
2019-02-05T08:01:02.501Z,24.08
2019-02-05T08:02:02.507Z,24.07
2019-02-05T08:03:54.556Z,24.02
2019-02-05T08:04:54.602Z,24.01
2019-02-05T08:06:48.434Z,24.00
2019-02-05T08:07:48.163Z,24.01
2019-02-05T08:09:40.248Z,23.95
2019-02-05T08:10:40.486Z,23.94
2019-02-05T08:12:32.809Z,23.92
2019-02-05T08:13:32.557Z,23.90
2019-02-05T08:15:26.167Z,23.87
2019-02-05T08:16:26.176Z,23.85
2019-02-05T08:18:19.488Z,23.83
2019-02-05T08:19:19.512Z,23.89
2019-02-05T08:21:11.814Z,23.85
2019-02-05T08:22:11.600Z,23.86
2019-02-05T08:24:04.157Z,23.86
2019-02-05T08:25:04.142Z,23.86
2019-02-05T08:26:56.584Z,23.82
2019-02-05T08:27:56.288Z,23.85
2019-02-05T08:29:50.073Z,23.82
2019-02-05T08:30:49.605Z,23.87
2019-02-05T08:32:42.204Z,23.85
2019-02-05T08:33:42.180Z,23.83
2019-02-05T08:35:34.634Z,23.86
2019-02-05T08:36:34.700Z,23.80
2019-02-05T08:38:26.790Z,23.82
2019-02-05T08:39:26.766Z,23.82
2019-02-05T08:41:21.127Z,23.80
2019-02-05T08:42:20.601Z,23.82
2019-02-05T08:44:13.210Z,23.87
2019-02-05T08:45:14.305Z,23.82
2019-02-05T08:47:05.780Z,23.82
2019-02-05T08:48:05.315Z,23.82
2019-02-05T08:49:57.921Z,23.80
2019-02-05T08:50:57.646Z,23.85
2019-02-05T08:52:51.220Z,23.80
2019-02-05T08:53:51.002Z,23.83
2019-02-05T08:55:43.558Z,23.77
2019-02-05T08:56:43.580Z,23.83
2019-02-05T08:58:36.842Z,23.82
2019-02-05T08:59:36.902Z,23.92
2019-02-05T09:01:29.095Z,23.82
2019-02-05T09:02:29.265Z,23.79
2019-02-05T09:04:22.800Z,23.75
2019-02-05T09:05:22.549Z,23.85
2019-02-05T09:07:14.657Z,23.75
2019-02-05T09:08:14.953Z,23.76
2019-02-05T09:10:08.555Z,23.79
2019-02-05T09:11:08.011Z,23.79
2019-02-05T09:13:01.627Z,23.72
2019-02-05T09:14:10.517Z,23.79
2019-02-05T09:15:54.094Z,23.72
2019-02-05T09:16:53.682Z,23.79
2019-02-05T09:18:46.017Z,23.86
2019-02-05T09:19:46.244Z,23.80
2019-02-05T09:21:38.823Z,23.79
2019-02-05T09:22:38.606Z,23.75
2019-02-05T09:24:31.705Z,23.79
2019-02-05T09:25:31.721Z,23.79
2019-02-05T09:27:24.518Z,23.80
2019-02-05T09:28:24.032Z,23.79
2019-02-05T09:30:16.420Z,23.72
2019-02-05T09:31:16.406Z,23.72
2019-02-05T09:33:10.207Z,23.80
2019-02-05T09:34:09.740Z,23.71
2019-02-05T09:36:03.097Z,23.77
2019-02-05T09:37:03.319Z,23.76
2019-02-05T09:38:55.801Z,23.75
2019-02-05T09:39:55.601Z,23.71
2019-02-05T09:41:48.913Z,23.75
2019-02-05T09:42:48.911Z,23.79
2019-02-05T09:44:42.711Z,23.70
2019-02-05T09:45:42.508Z,23.82
2019-02-05T09:47:34.592Z,23.82
2019-02-05T09:48:34.609Z,23.71
2019-02-05T09:50:30.813Z,23.76
2019-02-05T09:51:28.161Z,23.65
2019-02-05T09:53:21.574Z,23.72
2019-02-05T09:54:21.507Z,23.79
2019-02-05T09:56:14.451Z,23.80
2019-02-05T09:57:13.944Z,23.76
2019-02-05T09:59:06.533Z,23.76
2019-02-05T10:00:06.280Z,23.67
2019-02-05T10:01:59.072Z,23.68
2019-02-05T10:02:58.653Z,23.71
2019-02-05T10:04:51.807Z,23.77
2019-02-05T10:05:51.008Z,23.71
2019-02-05T10:07:44.691Z,23.79
2019-02-05T10:08:44.308Z,23.71
2019-02-05T10:10:36.687Z,23.67
2019-02-05T10:11:36.676Z,23.65
2019-02-05T10:13:30.207Z,23.68
2019-02-05T10:14:30.041Z,23.71
2019-02-05T10:16:22.738Z,23.76
2019-02-05T10:17:22.585Z,23.72
2019-02-05T10:19:15.898Z,23.79
2019-02-05T10:20:15.684Z,23.76
2019-02-05T10:22:08.023Z,23.77
2019-02-05T10:23:08.257Z,23.70
2019-02-05T10:25:00.818Z,23.75
2019-02-05T10:26:00.565Z,23.65
2019-02-05T10:27:53.731Z,23.72
2019-02-05T10:28:53.700Z,23.65
2019-02-05T10:30:46.226Z,23.65
2019-02-05T10:31:46.002Z,23.75
2019-02-05T10:33:38.620Z,23.68
2019-02-05T10:34:38.573Z,23.70
2019-02-05T10:36:30.383Z,23.76
2019-02-05T10:37:30.228Z,23.71
2019-02-05T10:39:22.879Z,23.75
2019-02-05T10:40:22.860Z,23.70
2019-02-05T10:42:15.764Z,23.68
2019-02-05T10:43:15.496Z,23.75
2019-02-05T10:45:07.838Z,23.70
2019-02-05T10:46:08.065Z,23.72
2019-02-05T10:48:00.712Z,23.70
2019-02-05T10:49:03.173Z,23.70
2019-02-05T10:50:53.137Z,23.72
2019-02-05T10:51:53.081Z,23.68
2019-02-05T10:53:45.416Z,23.77
2019-02-05T10:54:45.175Z,23.70
2019-02-05T10:56:37.801Z,23.67
2019-02-05T10:57:37.782Z,23.67
2019-02-05T10:59:30.369Z,23.62
2019-02-05T11:00:30.088Z,23.67
2019-02-05T11:02:22.209Z,23.65
2019-02-05T11:03:22.213Z,23.71
2019-02-05T11:05:14.771Z,23.71
2019-02-05T11:06:14.550Z,23.67
2019-02-05T11:08:07.034Z,23.68
2019-02-05T11:09:07.002Z,23.67
2019-02-05T11:11:00.315Z,23.68
2019-02-05T11:12:00.373Z,23.70
2019-02-05T11:13:52.449Z,23.67
2019-02-05T11:14:52.681Z,23.58
2019-02-05T11:16:45.997Z,23.70
2019-02-05T11:17:46.003Z,23.60
2019-02-05T11:19:38.354Z,23.62
2019-02-05T11:20:38.381Z,23.60
2019-02-05T11:22:31.864Z,23.62
2019-02-05T11:23:31.440Z,23.50
2019-02-05T11:25:24.081Z,23.67
2019-02-05T11:26:24.071Z,23.67
2019-02-05T11:28:16.627Z,23.55
2019-02-05T11:29:16.350Z,23.60
2019-02-05T11:31:08.510Z,23.67
2019-02-05T11:32:08.718Z,23.57
2019-02-05T11:34:01.032Z,23.70
2019-02-05T11:35:01.100Z,23.67
2019-02-05T11:36:54.787Z,23.55
2019-02-05T11:37:54.189Z,23.68
2019-02-05T11:39:48.011Z,23.61
2019-02-05T11:40:47.522Z,23.61
2019-02-05T11:42:40.126Z,23.60
2019-02-05T11:43:40.077Z,23.67
2019-02-05T11:45:33.663Z,23.65
2019-02-05T11:46:33.431Z,23.65
2019-02-05T11:48:26.154Z,23.61
2019-02-05T11:49:26.083Z,23.62
2019-02-05T11:51:19.444Z,23.64
2019-02-05T11:52:19.224Z,23.52
2019-02-05T11:54:12.181Z,23.62
2019-02-05T11:55:12.183Z,23.60
2019-02-05T11:57:05.485Z,23.60
2019-02-05T11:58:05.556Z,23.58
2019-02-05T11:59:58.900Z,23.58
2019-02-05T12:00:58.844Z,23.60
2019-02-05T12:02:51.389Z,23.61
2019-02-05T12:03:51.211Z,23.64
2019-02-05T12:05:43.288Z,23.62
2019-02-05T12:06:43.567Z,23.61
2019-02-05T12:08:36.848Z,23.50
2019-02-05T12:09:36.884Z,23.58
2019-02-05T12:11:29.980Z,23.60
2019-02-05T12:12:30.231Z,23.62
2019-02-05T12:14:22.742Z,23.58
2019-02-05T12:15:22.526Z,23.65
2019-02-05T12:17:14.644Z,23.64
2019-02-05T12:18:14.673Z,23.62
2019-02-05T12:20:08.016Z,23.60
2019-02-05T12:21:06.978Z,23.53
2019-02-05T12:22:59.567Z,23.60
2019-02-05T12:23:59.559Z,23.65
2019-02-05T12:25:52.885Z,23.58
2019-02-05T12:26:52.692Z,23.67
2019-02-05T12:28:44.994Z,23.60
2019-02-05T12:29:45.229Z,23.57
2019-02-05T12:31:37.800Z,23.62
2019-02-05T12:32:37.543Z,23.68
2019-02-05T12:34:30.695Z,23.52
2019-02-05T12:35:30.938Z,23.43
2019-02-05T12:37:23.455Z,23.57
2019-02-05T12:38:23.021Z,23.64
2019-02-05T12:40:15.582Z,23.60
2019-02-05T12:41:15.560Z,23.61
2019-02-05T12:43:08.677Z,23.58
2019-02-05T12:44:08.425Z,23.64
2019-02-05T12:46:01.093Z,23.55
2019-02-05T12:47:01.102Z,23.61
2019-02-05T12:48:53.664Z,23.62
2019-02-05T12:49:53.452Z,23.61
2019-02-05T12:51:45.536Z,23.57
2019-02-05T12:52:45.786Z,23.64
2019-02-05T12:54:38.826Z,23.55
2019-02-05T12:55:38.666Z,23.61
2019-02-05T12:57:30.984Z,23.53
2019-02-05T12:58:30.941Z,23.61
2019-02-05T13:00:23.460Z,23.61
2019-02-05T13:01:23.296Z,23.52
2019-02-05T13:03:16.807Z,23.61
2019-02-05T13:04:16.631Z,23.60
2019-02-05T13:06:10.268Z,23.60
2019-02-05T13:07:10.020Z,23.64
2019-02-05T13:09:02.113Z,23.60
2019-02-05T13:10:02.330Z,23.55
2019-02-05T13:11:55.890Z,23.60
2019-02-05T13:12:55.668Z,23.61
2019-02-05T13:14:47.764Z,23.65
2019-02-05T13:15:48.000Z,23.58
2019-02-05T13:17:40.552Z,23.64
2019-02-05T13:18:40.079Z,23.62
2019-02-05T13:20:33.304Z,23.61
2019-02-05T13:21:32.648Z,23.55
2019-02-05T13:23:25.253Z,23.55
2019-02-05T13:24:24.988Z,23.57
2019-02-05T13:26:17.121Z,23.61
2019-02-05T13:27:17.107Z,23.52
2019-02-05T13:29:09.660Z,23.52
2019-02-05T13:30:09.650Z,23.52
2019-02-05T13:32:01.771Z,23.52
2019-02-05T13:33:01.764Z,23.49
2019-02-05T13:34:55.638Z,23.49
2019-02-05T13:35:55.343Z,23.58
2019-02-05T13:37:47.417Z,23.58
2019-02-05T13:38:47.657Z,23.52
2019-02-05T13:40:39.976Z,23.45
2019-02-05T13:41:39.978Z,23.52
2019-02-05T13:43:32.131Z,23.62
2019-02-05T13:44:32.318Z,23.55
2019-02-05T13:46:25.651Z,23.52
2019-02-05T13:47:25.409Z,23.58
2019-02-05T13:49:17.814Z,23.58
2019-02-05T13:50:17.759Z,23.52
2019-02-05T13:52:11.618Z,23.52
2019-02-05T13:53:11.393Z,23.53
2019-02-05T13:55:03.726Z,23.58
2019-02-05T13:56:05.341Z,23.55
2019-02-05T13:57:56.014Z,23.53
2019-02-05T13:58:56.019Z,23.58
2019-02-05T14:00:48.127Z,23.52
2019-02-05T14:01:48.131Z,23.55
2019-02-05T14:03:41.911Z,23.61
2019-02-05T14:04:41.707Z,23.55
2019-02-05T14:06:34.051Z,23.57
2019-02-05T14:07:34.056Z,23.58
2019-02-05T14:09:26.503Z,23.57
2019-02-05T14:10:26.230Z,23.57
2019-02-05T14:12:21.718Z,23.53
2019-02-05T14:13:18.824Z,23.53
2019-02-05T14:15:12.181Z,23.57
2019-02-05T14:16:11.905Z,23.53
2019-02-05T14:18:04.387Z,23.52
2019-02-05T14:19:04.416Z,23.55
2019-02-05T14:20:57.230Z,23.52
2019-02-05T14:21:56.995Z,23.52
2019-02-05T14:23:49.388Z,23.58
2019-02-05T14:24:49.263Z,23.50
2019-02-05T14:26:41.898Z,23.55
2019-02-05T14:27:41.655Z,23.52
2019-02-05T14:29:34.769Z,23.52
2019-02-05T14:30:34.747Z,23.57
2019-02-05T14:32:27.297Z,23.55
2019-02-05T14:33:27.306Z,23.42
2019-02-05T14:35:20.674Z,23.52
2019-02-05T14:36:20.654Z,23.58
2019-02-05T14:38:13.248Z,23.52
2019-02-05T14:39:12.756Z,23.52
2019-02-05T14:41:06.138Z,23.49
2019-02-05T14:42:06.330Z,23.45
2019-02-05T14:44:00.469Z,23.58
2019-02-05T14:45:00.013Z,23.55
2019-02-05T14:46:52.323Z,23.50
2019-02-05T14:47:52.571Z,23.53
2019-02-05T14:49:44.870Z,23.49
2019-02-05T14:50:44.902Z,23.43
2019-02-05T14:52:37.288Z,23.52
2019-02-05T14:53:36.981Z,23.46
2019-02-05T14:55:30.794Z,23.47
2019-02-05T14:56:30.584Z,23.47
2019-02-05T14:58:22.983Z,23.45
2019-02-05T14:59:22.676Z,23.46
2019-02-05T15:01:15.369Z,23.43
2019-02-05T15:02:15.436Z,23.46
2019-02-05T15:04:08.775Z,23.47
2019-02-05T15:05:08.530Z,23.45
2019-02-05T15:07:05.124Z,23.46
2019-02-05T15:08:01.117Z,23.39
2019-02-05T15:09:53.159Z,23.43
2019-02-05T15:10:53.176Z,23.46
2019-02-05T15:12:45.956Z,23.45
2019-02-05T15:13:45.714Z,23.46
2019-02-05T15:15:37.850Z,23.45
2019-02-05T15:16:38.066Z,23.40
2019-02-05T15:18:30.619Z,23.47
2019-02-05T15:19:30.135Z,23.45
2019-02-05T15:21:22.479Z,23.45
2019-02-05T15:22:22.502Z,23.39
2019-02-05T15:24:16.309Z,23.46
2019-02-05T15:25:15.850Z,23.43
2019-02-05T15:27:08.430Z,23.43
2019-02-05T15:28:08.160Z,23.45
2019-02-05T15:30:00.962Z,23.42
2019-02-05T15:31:00.713Z,23.46
2019-02-05T15:32:52.840Z,23.49
2019-02-05T15:33:53.116Z,23.45
2019-02-05T15:35:45.968Z,23.45
2019-02-05T15:36:45.163Z,23.45
2019-02-05T15:38:37.739Z,23.39
2019-02-05T15:39:37.483Z,23.47
2019-02-05T15:41:31.314Z,23.43
2019-02-05T15:42:30.874Z,23.45
2019-02-05T15:44:23.212Z,23.47
2019-02-05T15:45:23.174Z,23.45
2019-02-05T15:47:15.751Z,23.43
2019-02-05T15:48:15.503Z,23.45
2019-02-05T15:50:07.970Z,23.43
2019-02-05T15:51:07.929Z,23.45
2019-02-05T15:53:00.725Z,23.43
2019-02-05T15:54:00.267Z,23.43
2019-02-05T15:55:53.617Z,23.42
2019-02-05T15:56:53.643Z,23.42
2019-02-05T15:58:46.424Z,23.40
2019-02-05T15:59:46.253Z,23.39
2019-02-05T16:01:39.569Z,23.40
2019-02-05T16:02:39.339Z,23.38
2019-02-05T16:04:31.904Z,23.40
2019-02-05T16:05:31.658Z,23.32
2019-02-05T16:07:24.632Z,23.40
2019-02-05T16:08:24.567Z,23.35
2019-02-05T16:10:16.890Z,23.39
2019-02-05T16:11:16.903Z,23.26
2019-02-05T16:13:10.299Z,23.40
2019-02-05T16:14:10.034Z,23.39
2019-02-05T16:16:02.567Z,23.31
2019-02-05T16:17:02.374Z,23.40
2019-02-05T16:18:54.988Z,23.38
2019-02-05T16:19:54.693Z,23.31
2019-02-05T16:21:48.501Z,23.40
2019-02-05T16:22:48.279Z,23.31
2019-02-05T16:24:40.611Z,23.32
2019-02-05T16:25:40.345Z,23.40
2019-02-05T16:27:33.035Z,23.43
2019-02-05T16:28:32.932Z,23.42
2019-02-05T16:30:25.255Z,23.40
2019-02-05T16:31:27.818Z,23.42
2019-02-05T16:33:17.795Z,23.39
2019-02-05T16:34:17.346Z,23.32
2019-02-05T16:36:09.920Z,23.39
2019-02-05T16:37:09.958Z,23.38
2019-02-05T16:39:03.486Z,23.27
2019-02-05T16:40:03.284Z,23.32
2019-02-05T16:41:55.601Z,23.32
2019-02-05T16:42:55.395Z,23.39
2019-02-05T16:44:48.727Z,23.34
2019-02-05T16:45:48.445Z,23.29
2019-02-05T16:47:41.190Z,23.31
2019-02-05T16:48:40.962Z,23.39
2019-02-05T16:50:33.737Z,23.29
2019-02-05T16:51:33.466Z,23.27
2019-02-05T16:53:25.804Z,23.39
2019-02-05T16:54:25.840Z,23.32
2019-02-05T16:56:19.350Z,23.26
2019-02-05T16:57:18.912Z,23.39
2019-02-05T16:59:11.849Z,23.29
2019-02-05T17:00:11.286Z,23.31
2019-02-05T17:02:03.854Z,23.39
2019-02-05T17:03:03.809Z,23.39
2019-02-05T17:04:56.972Z,23.38
2019-02-05T17:05:57.193Z,23.35
2019-02-05T17:07:50.009Z,23.32
2019-02-05T17:08:49.777Z,23.31
2019-02-05T17:10:43.177Z,23.42
2019-02-05T17:11:43.159Z,23.29
2019-02-05T17:13:35.689Z,23.39
2019-02-05T17:14:35.687Z,23.29
2019-02-05T17:16:28.574Z,23.38
2019-02-05T17:17:28.624Z,23.31
2019-02-05T17:19:21.903Z,23.29
2019-02-05T17:20:21.930Z,23.31
2019-02-05T17:22:14.022Z,23.35
2019-02-05T17:23:14.012Z,23.31
2019-02-05T17:25:07.823Z,23.35
2019-02-05T17:26:07.618Z,23.31
2019-02-05T17:27:59.733Z,23.27
2019-02-05T17:28:59.718Z,23.39
2019-02-05T17:30:52.212Z,23.26
2019-02-05T17:31:52.054Z,23.26
2019-02-05T17:33:44.370Z,23.31
2019-02-05T17:34:44.363Z,23.27
2019-02-05T17:36:38.203Z,23.34
2019-02-05T17:37:37.961Z,23.24
2019-02-05T17:39:30.316Z,23.31
2019-02-05T17:40:30.268Z,23.27
2019-02-05T17:42:22.547Z,23.31
2019-02-05T17:43:22.599Z,23.29
2019-02-05T17:45:14.939Z,23.38
2019-02-05T17:46:14.932Z,23.29
2019-02-05T17:48:07.537Z,23.40
2019-02-05T17:49:07.269Z,23.27
2019-02-05T17:51:00.204Z,23.24
2019-02-05T17:51:59.365Z,23.31
2019-02-05T17:53:52.192Z,23.27
2019-02-05T17:54:51.662Z,23.24
2019-02-05T17:56:44.040Z,23.26
2019-02-05T17:57:44.279Z,23.29
2019-02-05T17:59:37.639Z,23.32
2019-02-05T18:00:37.599Z,23.26
2019-02-05T18:02:29.919Z,23.29
2019-02-05T18:03:29.899Z,23.26
2019-02-05T18:05:22.617Z,23.26
2019-02-05T18:06:22.592Z,23.26
2019-02-05T18:08:14.943Z,23.26
2019-02-05T18:09:14.928Z,23.24
2019-02-05T18:11:07.529Z,23.26
2019-02-05T18:12:07.044Z,23.24
2019-02-05T18:13:59.368Z,23.23
2019-02-05T18:14:59.585Z,23.20
2019-02-05T18:16:52.176Z,23.24
2019-02-05T18:17:51.713Z,23.24
2019-02-05T18:19:44.329Z,23.31
2019-02-05T18:20:44.020Z,23.29
2019-02-05T18:22:36.975Z,23.26
2019-02-05T18:23:36.516Z,23.27
2019-02-05T18:25:29.104Z,23.31
2019-02-05T18:26:29.088Z,23.23
2019-02-05T18:28:21.637Z,23.26
2019-02-05T18:29:21.433Z,23.29
2019-02-05T18:31:13.542Z,23.26